Back to Top
Banner_Quays_at_Mast_2020.jpeg
previous arrow
next arrow

Port Arrivals Report (AIS)

This report is generated from collected AIS (Automated Identification System) signals from vessels entering port.

IMO MMSI Class Flag Vessel Name Vessel type Nav Status Destination Call Sign Latitude Longitude Speed (kts) Course (T) Draught (m) LOA (m) Beam (m) Timestamp
0 250014774 B IE HARPY DREDGING / UNDERWATER Ops. - EIA3240 51.6885 -8.50175 9.8 348.9 0 13 4 2026-08-31 19:02:52
0 250005517 B IE HAFOD Pleasure craft - EI-VE-3 51.6873 -8.50056 3.9 345.1 0 10 3 2026-08-31 14:48:02
0 250004156 A IE F/V BREIZH ARVOR II FISHING. - FISHING EIRX3 51.6999 -8.51745 0 314.3 3.2 23 6 2026-08-31 02:43:53
0 250004156 A IE F/V BREIZH ARVOR II FISHING. - FISHING EIRX3 51.6999 -8.51745 0 219.4 3.2 23 6 2026-08-30 21:19:32
0 250004156 A IE F/V BREIZH ARVOR II FISHING. - FISHING EIRX3 51.6999 -8.51746 0 244.4 3.2 23 6 2026-08-30 14:28:31
0 250001702 A IE ADRIANNE FISHING. Undefined CO EIGX7 51.6882 -8.49931 4 354 3.5 21 7 2026-08-30 14:06:14
0 250014182 A IE LADY CATHERINE PASSENGER. - EIA2647 51.6878 -8.49687 9.6 345 0 0 0 2026-08-30 13:10:01
0 375735000 B VC T/T BIG EAGLE Pleasure craft - J8Y4905 51.6893 -8.49832 8.5 338.2 0 9 3 2026-08-30 12:03:57
7916430 375003000 A VC BIG EAGLE Pleasure craft - KINSALE J8Y3517 51.6879 -8.49774 9.2 350.1 2.9 49 9 2026-08-30 12:03:03
9068598 250000608 A IE HANNAH J FISHING. Undefined EI8715 51.6886 -8.49963 7.1 354 0 20 6 2026-08-30 11:14:28
0 250001825 B IE OCEAN RANGER Pleasure craft - EIHP5 51.6871 -8.50106 7 345.2 0 12 5 2026-08-29 19:22:36
0 250015067 B IE - - 51.6871 -8.4977 28.7 355.4 0 0 0 2026-08-29 18:05:49
0 250107560 B IE WHITE TIGER Pleasure craft - EI7674 51.6893 -8.49996 7.3 346.4 0 9 4 2026-08-29 16:57:33
0 250014182 A IE LADY CATHERINE PASSENGER. - EIA2647 51.6894 -8.49966 10.5 344.6 0 0 0 2026-08-29 14:30:44
0 250001825 B IE OCEAN RANGER Pleasure craft - EIHP5 51.6967 -8.50345 13.1 344.1 0 12 5 2026-08-28 20:14:48
0 250002237 B IE AURELIA GRACE SAILING. - EI7720 51.6878 -8.50136 3.4 341.3 0 11 3 2026-08-28 19:59:59
0 250000709 B IE EARENDIL SAILING. - EI6061 51.6875 -8.49992 4.3 341.3 0 17 4 2026-08-28 19:53:00
0 250014243 B IE PRIVATEER SAILING. - EIA2708 51.6896 -8.50293 7.1 342.3 0 12 4 2026-08-28 19:49:34
0 250006035 B IE VALFREYA SAILING. - EI-XB-6 51.6872 -8.50182 5 347.2 0 10 3 2026-08-28 19:48:46
0 250003677 B IE SIBONEY SAILING. - EI-QT-2 51.6873 -8.50073 4.8 349.8 0 9 4 2026-08-28 19:47:39